createdAt,value
2022-08-26T00:02:06.560Z,27.55
2022-08-26T00:04:34.005Z,26.98
2022-08-26T00:07:01.454Z,27.30
2022-08-26T00:09:29.701Z,29.92
2022-08-26T00:11:57.197Z,26.10
2022-08-26T00:14:29.654Z,27.92
2022-08-26T00:17:00.208Z,25.33
2022-08-26T00:19:27.766Z,30.70
2022-08-26T00:21:55.195Z,26.15
2022-08-26T00:24:23.437Z,29.02
2022-08-26T00:26:51.736Z,27.27
2022-08-26T00:29:19.830Z,28.58
2022-08-26T00:31:48.921Z,28.00
2022-08-26T00:34:19.600Z,27.45
2022-08-26T00:36:47.689Z,26.05
2022-08-26T00:39:16.921Z,27.20
2022-08-26T00:41:44.361Z,31.35
2022-08-26T00:44:11.993Z,25.92
2022-08-26T00:46:46.592Z,29.92
2022-08-26T00:49:22.661Z,28.52
2022-08-26T00:51:52.633Z,28.42
2022-08-26T00:54:22.849Z,25.88
2022-08-26T00:56:55.634Z,26.25
2022-08-26T00:59:24.841Z,29.08
2022-08-26T01:01:52.371Z,28.20
2022-08-26T01:04:23.219Z,30.85
2022-08-26T01:06:52.680Z,25.27
2022-08-26T01:09:22.472Z,29.45
2022-08-26T01:11:53.494Z,28.92
2022-08-26T01:14:22.222Z,28.50
2022-08-26T01:16:49.999Z,28.73
2022-08-26T01:19:23.454Z,29.92
2022-08-26T01:21:57.703Z,26.83
2022-08-26T01:24:29.528Z,32.47
2022-08-26T01:27:02.274Z,25.08
2022-08-26T01:29:31.070Z,30.88
2022-08-26T01:31:58.788Z,27.80
2022-08-26T01:34:29.253Z,30.02
2022-08-26T01:37:03.157Z,26.60
2022-08-26T01:39:35.616Z,27.30
2022-08-26T01:42:05.533Z,33.03
2022-08-26T01:44:43.987Z,29.50
2022-08-26T01:47:13.716Z,26.98
2022-08-26T01:49:43.764Z,32.00
2022-08-26T01:52:15.922Z,27.67
2022-08-26T01:54:46.204Z,29.45
2022-08-26T01:57:20.397Z,28.40
2022-08-26T01:59:49.475Z,27.83
2022-08-26T02:02:17.989Z,29.00
2022-08-26T02:04:50.047Z,25.65
2022-08-26T02:07:19.759Z,24.55
2022-08-26T02:09:50.520Z,27.40
2022-08-26T02:12:19.824Z,27.20
2022-08-26T02:17:18.182Z,24.98
2022-08-26T02:19:50.517Z,24.45
2022-08-26T02:22:22.306Z,26.48
2022-08-26T02:24:56.385Z,25.63
2022-08-26T02:27:28.236Z,25.52
2022-08-26T02:30:07.390Z,25.15
2022-08-26T02:32:34.905Z,24.52
2022-08-26T02:35:02.782Z,27.70
2022-08-26T02:37:31.974Z,26.08
2022-08-26T02:40:04.657Z,24.08
2022-08-26T02:42:32.237Z,26.33
2022-08-26T02:45:00.409Z,25.85
2022-08-26T02:47:29.007Z,24.33
2022-08-26T02:49:56.680Z,27.23
2022-08-26T02:52:24.220Z,24.42
2022-08-26T02:54:51.801Z,24.95
2022-08-26T02:57:20.811Z,28.10
2022-08-26T02:59:49.852Z,26.85
2022-08-26T03:02:17.455Z,28.40
2022-08-26T03:04:58.183Z,34.63
2022-08-26T03:07:30.092Z,26.77
2022-08-26T03:09:57.622Z,27.85
2022-08-26T03:12:26.792Z,26.55
2022-08-26T03:14:54.269Z,26.58
2022-08-26T03:17:21.717Z,26.52
2022-08-26T03:19:52.918Z,25.90
2022-08-26T03:22:24.795Z,23.00
2022-08-26T03:24:52.272Z,23.80
2022-08-26T03:27:19.744Z,21.95
2022-08-26T03:29:49.531Z,24.63
2022-08-26T03:32:18.139Z,23.27
2022-08-26T03:34:45.688Z,24.13
2022-08-26T03:37:14.462Z,22.40
2022-08-26T03:39:42.069Z,24.23
2022-08-26T03:42:09.523Z,24.95
2022-08-26T03:44:42.038Z,21.60
2022-08-26T03:47:11.353Z,24.80
2022-08-26T03:49:38.909Z,25.75
2022-08-26T03:52:06.842Z,24.02
2022-08-26T03:54:34.592Z,26.58
2022-08-26T03:57:02.061Z,25.50
2022-08-26T03:59:29.487Z,26.45
2022-08-26T04:01:57.024Z,26.63
2022-08-26T04:04:25.981Z,24.48
2022-08-26T04:06:57.606Z,21.17
2022-08-26T04:09:26.000Z,30.20
2022-08-26T04:11:54.563Z,27.80
2022-08-26T04:14:24.683Z,27.83
2022-08-26T04:16:53.918Z,37.38
2022-08-26T04:19:24.589Z,42.88
2022-08-26T04:21:54.548Z,68.00
2022-08-26T04:24:23.956Z,51.17
2022-08-26T04:26:51.390Z,75.78
2022-08-26T04:29:23.270Z,49.47
2022-08-26T04:31:55.322Z,37.65
2022-08-26T04:34:24.571Z,32.38
2022-08-26T04:36:56.614Z,30.85
2022-08-26T04:39:24.408Z,33.90
2022-08-26T04:41:52.895Z,20.25
2022-08-26T04:44:22.543Z,23.42
2022-08-26T04:46:51.403Z,25.25
2022-08-26T04:49:19.469Z,26.65
2022-08-26T04:51:47.136Z,31.80
2022-08-26T04:54:16.457Z,24.52
2022-08-26T04:56:45.154Z,25.55
2022-08-26T04:59:17.201Z,25.40
2022-08-26T05:01:46.690Z,28.25
2022-08-26T05:04:16.257Z,28.02
2022-08-26T05:06:46.303Z,26.38
2022-08-26T05:09:15.900Z,25.83
2022-08-26T05:14:10.388Z,26.33
2022-08-26T05:16:40.294Z,31.90
2022-08-26T05:19:08.458Z,28.15
2022-08-26T05:21:36.878Z,29.70
2022-08-26T05:24:06.575Z,26.70
2022-08-26T05:26:35.477Z,29.88
2022-08-26T05:29:02.948Z,26.05
2022-08-26T05:31:33.273Z,29.65
2022-08-26T05:36:33.349Z,29.48
2022-08-26T05:39:03.015Z,32.58
2022-08-26T05:41:34.181Z,26.00
2022-08-26T05:44:07.728Z,26.73
2022-08-26T05:46:37.282Z,26.10
2022-08-26T05:49:06.520Z,28.73
2022-08-26T05:51:41.445Z,26.33
2022-08-26T05:54:10.413Z,28.58
2022-08-26T05:56:38.309Z,30.15
2022-08-26T05:59:10.954Z,28.95
2022-08-26T06:01:42.793Z,23.42
2022-08-26T06:04:11.312Z,23.48
2022-08-26T06:06:38.887Z,26.52
2022-08-26T06:09:10.845Z,27.15
2022-08-26T06:11:39.273Z,25.70
2022-08-26T06:14:08.520Z,23.77
2022-08-26T06:16:40.988Z,24.90
2022-08-26T06:19:11.277Z,27.23
2022-08-26T06:21:41.394Z,23.67
2022-08-26T06:24:11.592Z,21.02
2022-08-26T06:26:40.371Z,22.42
2022-08-26T06:29:11.766Z,29.98
2022-08-26T06:31:44.317Z,22.63
2022-08-26T06:34:11.867Z,25.42
2022-08-26T06:36:43.961Z,23.85
2022-08-26T06:39:13.697Z,20.77
2022-08-26T06:41:43.474Z,23.13
2022-08-26T06:44:19.397Z,31.17
2022-08-26T06:46:50.297Z,174.18
2022-08-26T06:49:26.584Z,69.75
2022-08-26T06:51:55.325Z,69.85
2022-08-26T06:54:22.754Z,77.80
2022-08-26T06:56:50.173Z,83.50
2022-08-26T06:59:19.765Z,88.68
2022-08-26T07:01:47.459Z,147.32
2022-08-26T07:04:20.183Z,97.30
2022-08-26T07:06:52.908Z,74.25
2022-08-26T07:09:21.736Z,85.50
2022-08-26T07:11:49.853Z,76.30
2022-08-26T07:14:17.458Z,116.40
2022-08-26T07:16:50.609Z,89.78
2022-08-26T07:19:18.467Z,91.03
2022-08-26T07:21:58.270Z,108.25
2022-08-26T07:24:28.430Z,55.53
2022-08-26T07:26:59.705Z,56.97
2022-08-26T07:29:27.138Z,75.38
2022-08-26T07:31:56.912Z,75.93
2022-08-26T07:34:24.425Z,60.30
2022-08-26T07:36:53.801Z,54.78
2022-08-26T07:39:22.997Z,56.92
2022-08-26T07:41:50.818Z,55.95
2022-08-26T07:44:18.517Z,38.75
2022-08-26T07:46:52.060Z,27.95
2022-08-26T07:49:23.162Z,43.47
2022-08-26T07:51:51.110Z,28.45
2022-08-26T07:54:19.245Z,36.92
2022-08-26T07:56:47.565Z,35.40
2022-08-26T07:59:15.781Z,29.30
2022-08-26T08:01:45.151Z,28.35
2022-08-26T08:07:00.727Z,27.48
2022-08-26T08:09:28.141Z,24.88
2022-08-26T08:11:56.273Z,30.60
2022-08-26T08:14:23.750Z,26.40
2022-08-26T08:16:54.677Z,20.25
2022-08-26T08:19:22.705Z,20.05
2022-08-26T08:21:52.740Z,21.60
2022-08-26T08:24:20.186Z,22.20
2022-08-26T08:26:48.120Z,21.92
2022-08-26T08:29:15.501Z,21.00
2022-08-26T08:31:56.964Z,19.73
2022-08-26T08:34:28.270Z,17.13
2022-08-26T08:36:58.054Z,19.98
2022-08-26T08:39:26.342Z,21.52
2022-08-26T08:42:12.741Z,15.52
2022-08-26T08:44:44.502Z,17.10
2022-08-26T08:49:55.437Z,18.40
2022-08-26T08:52:31.544Z,15.85
2022-08-26T08:54:59.039Z,16.73
2022-08-26T08:57:38.646Z,16.60
2022-08-26T09:00:11.839Z,17.60
2022-08-26T09:02:51.080Z,17.42
2022-08-26T09:05:23.277Z,17.83
2022-08-26T09:07:57.445Z,17.58
2022-08-26T09:10:35.165Z,15.23
2022-08-26T09:13:06.563Z,18.08
2022-08-26T09:15:45.970Z,20.80
2022-08-26T09:18:24.915Z,18.55
2022-08-26T09:20:56.882Z,22.33
2022-08-26T09:23:26.455Z,26.20
2022-08-26T09:28:29.616Z,19.15
2022-08-26T09:31:11.506Z,18.92
2022-08-26T09:33:40.406Z,18.58
2022-08-26T09:36:17.496Z,19.03
2022-08-26T09:38:46.365Z,18.92
2022-08-26T09:41:23.567Z,17.95
2022-08-26T09:44:19.008Z,20.52
2022-08-26T09:46:54.739Z,20.00
2022-08-26T09:49:35.580Z,25.75
2022-08-26T09:52:20.980Z,20.30
2022-08-26T09:55:02.137Z,18.13
2022-08-26T09:57:34.249Z,17.90
2022-08-26T10:00:02.693Z,18.85
2022-08-26T10:02:47.783Z,23.25
2022-08-26T10:05:29.351Z,20.35
2022-08-26T10:07:59.723Z,17.13
2022-08-26T10:10:38.889Z,22.50
2022-08-26T10:13:12.699Z,17.88
2022-08-26T10:15:50.027Z,20.95
2022-08-26T10:18:22.374Z,17.65
2022-08-26T10:20:57.768Z,19.20
2022-08-26T10:23:28.603Z,20.38
2022-08-26T10:26:04.395Z,19.38
2022-08-26T10:28:37.337Z,34.33
2022-08-26T10:31:11.716Z,35.25
2022-08-26T10:33:39.435Z,23.38
2022-08-26T10:36:15.224Z,19.65
2022-08-26T10:38:44.249Z,17.85
2022-08-26T10:41:17.067Z,26.67
2022-08-26T10:43:51.276Z,23.15
2022-08-26T10:46:21.965Z,24.13
2022-08-26T10:48:55.712Z,23.38
2022-08-26T10:51:27.314Z,19.27
2022-08-26T10:54:03.290Z,21.05
2022-08-26T10:56:43.617Z,21.15
2022-08-26T10:59:21.893Z,19.50
2022-08-26T11:01:58.378Z,21.88
2022-08-26T11:04:47.731Z,20.90
2022-08-26T11:07:34.462Z,22.83
2022-08-26T11:10:05.853Z,17.83
2022-08-26T11:12:57.992Z,22.58
2022-08-26T11:16:07.594Z,21.48
2022-08-26T11:18:52.520Z,19.70
2022-08-26T11:21:51.012Z,22.25
2022-08-26T11:25:11.341Z,22.27
2022-08-26T11:28:04.772Z,23.15
2022-08-26T11:30:48.856Z,23.67
2022-08-26T11:33:55.349Z,21.48
2022-08-26T11:36:51.965Z,22.65
2022-08-26T11:39:26.849Z,21.17
2022-08-26T11:41:57.871Z,17.75
2022-08-26T11:44:29.233Z,17.02
2022-08-26T11:46:58.878Z,22.27
2022-08-26T11:49:27.372Z,19.75
2022-08-26T11:52:09.542Z,17.63
2022-08-26T11:54:36.955Z,17.92
2022-08-26T11:57:11.828Z,20.60
2022-08-26T11:59:41.908Z,24.48
2022-08-26T12:02:15.497Z,17.33
2022-08-26T12:05:03.469Z,20.42
2022-08-26T12:07:31.123Z,17.40
2022-08-26T12:10:02.104Z,21.02
2022-08-26T12:12:34.936Z,23.60
2022-08-26T12:15:12.239Z,17.85
2022-08-26T12:17:40.862Z,22.40
2022-08-26T12:20:18.951Z,18.50
2022-08-26T12:22:47.947Z,16.70
2022-08-26T12:25:23.669Z,21.23
2022-08-26T12:27:53.655Z,23.25
2022-08-26T12:30:26.024Z,21.48
2022-08-26T12:33:14.164Z,26.45
2022-08-26T12:35:54.805Z,20.75
2022-08-26T12:38:26.855Z,22.95
2022-08-26T12:40:55.096Z,25.73
2022-08-26T12:43:41.195Z,23.10
2022-08-26T12:46:12.615Z,26.42
2022-08-26T12:48:42.851Z,21.92
2022-08-26T12:51:23.617Z,19.77
2022-08-26T12:53:52.169Z,21.48
2022-08-26T12:56:25.977Z,19.33
2022-08-26T12:59:11.159Z,22.77
2022-08-26T13:01:44.820Z,20.75
2022-08-26T13:04:34.626Z,21.25
2022-08-26T13:07:28.875Z,23.63
2022-08-26T13:09:59.039Z,23.13
2022-08-26T13:12:29.110Z,21.67
2022-08-26T13:14:57.079Z,21.77
2022-08-26T13:17:26.827Z,23.30
2022-08-26T13:19:54.462Z,25.83
2022-08-26T13:22:24.753Z,24.60
2022-08-26T13:24:55.085Z,20.17
2022-08-26T13:27:24.552Z,20.73
2022-08-26T13:29:52.396Z,24.25
2022-08-26T13:32:20.203Z,21.95
2022-08-26T13:34:51.530Z,19.50
2022-08-26T13:37:19.010Z,23.42
2022-08-26T13:39:46.463Z,24.40
2022-08-26T13:42:13.947Z,21.63
2022-08-26T13:44:41.381Z,24.95
2022-08-26T13:47:08.794Z,20.88
2022-08-26T13:49:36.373Z,20.90
2022-08-26T13:52:05.580Z,21.40
2022-08-26T13:54:33.014Z,23.50
2022-08-26T13:57:00.428Z,28.70
2022-08-26T13:59:27.949Z,22.98
2022-08-26T14:01:55.376Z,22.23
2022-08-26T14:04:26.961Z,26.05
2022-08-26T14:06:54.935Z,25.17
2022-08-26T14:09:24.195Z,21.77
2022-08-26T14:11:53.977Z,21.55
2022-08-26T14:14:22.517Z,24.48
2022-08-26T14:16:58.874Z,25.25
2022-08-26T14:19:27.895Z,25.73
2022-08-26T14:21:55.376Z,26.00
2022-08-26T14:24:24.227Z,22.13
2022-08-26T14:26:51.685Z,26.10
2022-08-26T14:29:19.151Z,22.85
2022-08-26T14:31:46.764Z,25.33
2022-08-26T14:34:14.653Z,24.08
2022-08-26T14:36:42.060Z,22.77
2022-08-26T14:39:12.258Z,27.40
2022-08-26T14:41:45.324Z,29.52
2022-08-26T14:44:24.645Z,26.50
2022-08-26T14:46:53.531Z,29.20
2022-08-26T14:49:22.540Z,25.05
2022-08-26T14:51:50.238Z,26.38
2022-08-26T14:54:19.243Z,26.75
2022-08-26T14:56:50.806Z,30.83
2022-08-26T14:59:20.557Z,27.58
2022-08-26T15:01:48.540Z,27.58
2022-08-26T15:04:16.287Z,34.72
2022-08-26T15:06:43.865Z,25.90
2022-08-26T15:09:12.002Z,24.67
2022-08-26T15:11:39.432Z,26.05
2022-08-26T15:14:14.772Z,28.98
2022-08-26T15:16:48.005Z,28.30
2022-08-26T15:19:15.619Z,31.77
2022-08-26T15:21:43.339Z,33.10
2022-08-26T15:24:10.841Z,30.02
2022-08-26T15:26:38.436Z,29.17
2022-08-26T15:29:07.735Z,36.42
2022-08-26T15:31:35.764Z,47.60
2022-08-26T15:34:06.535Z,29.60
2022-08-26T15:36:34.958Z,32.17
2022-08-26T15:39:02.571Z,32.35
2022-08-26T15:41:30.044Z,33.33
2022-08-26T15:44:03.467Z,33.67
2022-08-26T15:46:32.739Z,34.40
2022-08-26T15:49:00.296Z,31.75
2022-08-26T15:51:30.057Z,29.98
2022-08-26T15:56:25.328Z,33.60
2022-08-26T15:58:54.498Z,29.40
2022-08-26T16:03:56.975Z,28.73
2022-08-26T16:06:27.399Z,30.38
2022-08-26T16:08:55.209Z,30.92
2022-08-26T16:11:23.350Z,28.65
2022-08-26T16:13:50.855Z,33.13
2022-08-26T16:16:19.060Z,29.08
2022-08-26T16:18:46.586Z,29.63
2022-08-26T16:21:17.920Z,25.65
2022-08-26T16:23:45.684Z,29.23
2022-08-26T16:26:15.611Z,28.27
2022-08-26T16:28:43.609Z,29.08
2022-08-26T16:31:11.967Z,28.50
2022-08-26T16:33:39.451Z,29.90
2022-08-26T16:36:08.435Z,31.23
2022-08-26T16:38:38.095Z,29.17
2022-08-26T16:41:07.309Z,29.75
2022-08-26T16:43:35.111Z,30.48
2022-08-26T16:46:05.053Z,29.42
2022-08-26T16:48:32.598Z,30.20
2022-08-26T16:51:00.015Z,37.38
2022-08-26T16:53:27.584Z,31.83
2022-08-26T16:55:56.437Z,33.90
2022-08-26T16:58:23.903Z,32.80
2022-08-26T17:00:51.332Z,30.58
2022-08-26T17:03:18.794Z,31.48
2022-08-26T17:05:46.205Z,34.05
2022-08-26T17:08:24.357Z,36.72
2022-08-26T17:10:59.377Z,29.05
2022-08-26T17:13:35.474Z,26.95
2022-08-26T17:16:05.383Z,29.90
2022-08-26T17:18:33.421Z,32.90
2022-08-26T17:21:02.172Z,27.75
2022-08-26T17:23:29.748Z,31.93
2022-08-26T17:25:58.774Z,35.28
2022-08-26T17:28:26.218Z,31.00
2022-08-26T17:30:55.400Z,27.70
2022-08-26T17:33:24.677Z,30.55
2022-08-26T17:35:52.787Z,29.20
2022-08-26T17:38:20.626Z,25.42
2022-08-26T17:40:48.129Z,27.45
2022-08-26T17:43:17.308Z,30.02
2022-08-26T17:45:44.872Z,29.35
2022-08-26T17:48:12.515Z,32.67
2022-08-26T17:50:41.320Z,30.83
2022-08-26T17:53:18.846Z,28.20
2022-08-26T17:55:47.046Z,30.05
2022-08-26T17:58:16.791Z,31.13
2022-08-26T18:00:46.212Z,30.63
2022-08-26T18:03:13.783Z,30.63
2022-08-26T18:05:41.449Z,30.80
2022-08-26T18:08:11.859Z,38.83
2022-08-26T18:10:41.300Z,88.57
2022-08-26T18:13:08.932Z,90.50
2022-08-26T18:15:41.155Z,49.47
2022-08-26T18:18:08.844Z,36.08
2022-08-26T18:20:38.858Z,38.20
2022-08-26T18:23:06.436Z,30.65
2022-08-26T18:25:34.237Z,34.17
2022-08-26T18:28:01.675Z,30.13
2022-08-26T18:30:29.098Z,32.63
2022-08-26T18:32:57.989Z,34.33
2022-08-26T18:35:25.369Z,29.80
2022-08-26T18:37:52.747Z,33.17
2022-08-26T18:40:20.323Z,30.58
2022-08-26T18:42:49.287Z,32.15
2022-08-26T18:45:22.062Z,29.35
2022-08-26T18:47:49.498Z,31.40
2022-08-26T18:50:18.535Z,32.95
2022-08-26T18:52:45.932Z,31.08
2022-08-26T18:55:13.388Z,30.25
2022-08-26T18:57:40.830Z,29.70
2022-08-26T19:00:09.479Z,30.65
2022-08-26T19:02:37.356Z,32.13
2022-08-26T19:05:06.789Z,31.73
2022-08-26T19:07:39.509Z,34.07
2022-08-26T19:10:07.983Z,30.67
2022-08-26T19:12:36.418Z,30.23
2022-08-26T19:15:04.515Z,32.38
2022-08-26T19:17:31.916Z,28.92
2022-08-26T19:19:59.362Z,30.77
2022-08-26T19:22:26.775Z,28.83
2022-08-26T19:24:55.702Z,29.50
2022-08-26T19:27:23.140Z,32.10
2022-08-26T19:29:50.563Z,33.00
2022-08-26T19:32:18.001Z,27.90
2022-08-26T19:34:45.393Z,31.35
2022-08-26T19:37:12.813Z,29.00
2022-08-26T19:39:40.229Z,28.38
2022-08-26T19:42:09.130Z,27.92
2022-08-26T19:44:36.542Z,28.95
2022-08-26T19:47:04.912Z,27.40
2022-08-26T19:49:32.810Z,28.63
2022-08-26T19:52:00.228Z,32.33
2022-08-26T19:54:27.709Z,31.65
2022-08-26T19:56:55.234Z,38.20
2022-08-26T19:59:24.143Z,43.28
2022-08-26T20:01:52.960Z,44.13
2022-08-26T20:04:28.375Z,48.90
2022-08-26T20:06:58.725Z,43.47
2022-08-26T20:09:28.927Z,48.45
2022-08-26T20:11:56.977Z,39.50
2022-08-26T20:14:26.720Z,38.00
2022-08-26T20:16:54.472Z,33.75
2022-08-26T20:19:21.992Z,34.65
2022-08-26T20:21:49.439Z,31.33
2022-08-26T20:24:18.759Z,29.55
2022-08-26T20:26:46.782Z,29.80
2022-08-26T20:29:17.349Z,31.15
2022-08-26T20:31:47.258Z,29.38
2022-08-26T20:34:16.310Z,30.55
2022-08-26T20:36:46.813Z,29.50
2022-08-26T20:39:15.879Z,29.30
2022-08-26T20:41:43.629Z,25.38
2022-08-26T20:44:11.360Z,27.50
2022-08-26T20:46:38.849Z,32.25
2022-08-26T20:49:08.105Z,25.85
2022-08-26T20:51:36.545Z,31.90
2022-08-26T20:54:04.584Z,27.23
2022-08-26T20:56:32.069Z,29.10
2022-08-26T20:59:00.784Z,26.80
2022-08-26T21:01:31.374Z,28.07
2022-08-26T21:03:58.934Z,27.38
2022-08-26T21:06:27.954Z,26.42
2022-08-26T21:08:55.866Z,24.00
2022-08-26T21:11:23.530Z,24.27
2022-08-26T21:14:10.753Z,24.65
2022-08-26T21:16:39.959Z,22.33
2022-08-26T21:19:10.329Z,24.50
2022-08-26T21:21:39.408Z,24.52
2022-08-26T21:24:07.290Z,25.33
2022-08-26T21:26:34.854Z,27.55
2022-08-26T21:29:02.740Z,23.15
2022-08-26T21:31:30.834Z,22.77
2022-08-26T21:33:58.392Z,27.73
2022-08-26T21:36:25.963Z,24.27
2022-08-26T21:38:55.576Z,26.75
2022-08-26T21:43:51.536Z,25.95
2022-08-26T21:46:21.279Z,27.63
2022-08-26T21:48:51.106Z,31.38
2022-08-26T21:51:20.810Z,29.50
2022-08-26T21:56:18.575Z,31.30
2022-08-26T21:58:46.068Z,31.55
2022-08-26T22:01:15.894Z,33.78
2022-08-26T22:03:46.958Z,28.90
2022-08-26T22:06:15.643Z,32.00
2022-08-26T22:08:43.229Z,35.70
2022-08-26T22:11:11.117Z,40.90
2022-08-26T22:13:41.844Z,35.38
2022-08-26T22:16:10.357Z,37.17
2022-08-26T22:18:38.672Z,35.75
2022-08-26T22:21:08.575Z,32.45
2022-08-26T22:23:37.850Z,34.60
2022-08-26T22:26:07.361Z,30.00
2022-08-26T22:31:03.500Z,31.52
2022-08-26T22:33:30.917Z,31.88
2022-08-26T22:35:58.361Z,36.05
2022-08-26T22:38:26.246Z,39.20
2022-08-26T22:40:55.442Z,42.17
2022-08-26T22:43:23.523Z,45.25
2022-08-26T22:45:52.433Z,70.47
2022-08-26T22:48:24.289Z,80.60
2022-08-26T22:50:58.250Z,84.63
2022-08-26T22:53:27.520Z,65.40
2022-08-26T22:55:54.976Z,53.53
2022-08-26T22:58:30.264Z,39.30
2022-08-26T23:00:59.473Z,32.40
2022-08-26T23:03:28.840Z,31.30
2022-08-26T23:05:56.305Z,30.90
2022-08-26T23:08:24.256Z,30.30
2022-08-26T23:10:52.366Z,30.77
2022-08-26T23:13:20.249Z,29.52
2022-08-26T23:15:47.752Z,29.15
2022-08-26T23:18:16.317Z,28.42
2022-08-26T23:20:45.176Z,27.60
2022-08-26T23:23:12.616Z,29.10
2022-08-26T23:25:40.503Z,30.65
2022-08-26T23:28:09.153Z,28.50
2022-08-26T23:30:36.672Z,29.92
2022-08-26T23:33:04.387Z,34.95
2022-08-26T23:35:31.782Z,30.38
2022-08-26T23:38:01.831Z,32.03
2022-08-26T23:40:31.735Z,28.50
2022-08-26T23:45:27.638Z,30.88
2022-08-26T23:47:55.341Z,29.65
2022-08-26T23:50:25.577Z,33.67
2022-08-26T23:52:52.997Z,31.23
2022-08-26T23:55:21.848Z,29.02
2022-08-26T23:57:49.396Z,28.40
